Time;durP1;ratioP1;P1;durP2;ratioP2;P2;SDS_P1;SDS_P2;PMS_P1;PMS_P2;Temp;Humidity;BMP_temperature;BMP_pressure;BME280_temperature;BME280_humidity;BME280_pressure;Samples;Min_cycle;Max_cycle;Signal;HPM_P1;HPM_P2
2022/04/09 00:01:03;;;;;;;;;;;;;;;8.81;71.31;98925.09;5051888;28;885;-56
2022/04/09 00:03:29;;;;;;;;;;;;;;;8.73;71.08;98916.16;5051865;28;810;-56
2022/04/09 00:05:56;;;;;;;;;;;;;;;8.82;71.08;98908.16;5051832;28;913;-56
2022/04/09 00:08:22;;;;;;;;;;;;;;;8.78;71.12;98899.94;5051683;28;1957;-56
2022/04/09 00:10:50;;;;;;;;;;;;;;;8.71;71.59;98900.03;5051669;28;811;-56
2022/04/09 00:13:16;;;;;;;;;;;;;;;8.64;71.60;98899.31;5050781;28;854;-56
2022/04/09 00:15:43;;;;;;;;;;;;;;;8.44;71.24;98899.16;5051680;28;938;-56
2022/04/09 00:18:13;;;;;;;;;;;;;;;8.28;72.70;98891.41;5051646;28;802;-56
2022/04/09 00:20:40;;;;;;;;;;;;;;;8.12;74.06;98887.25;5050361;28;2443;-56
2022/04/09 00:23:10;;;;;;;;;;;;;;;8.13;74.08;98894.31;5051578;28;798;-56
2022/04/09 00:25:36;;;;;;;;;;;;;;;8.32;73.45;98892.97;5051398;28;1295;-56
2022/04/09 00:28:03;;;;;;;;;;;;;;;8.58;72.05;98897.03;5051534;28;818;-56
2022/04/09 00:30:30;;;;;;;;;;;;;;;8.61;71.81;98892.66;5051437;28;1906;-56
2022/04/09 00:32:57;;;;;;;;;;;;;;;8.34;72.00;98895.28;5051427;28;830;-55
2022/04/09 00:35:24;;;;;;;;;;;;;;;8.09;73.37;98893.56;5051455;28;1066;-56
2022/04/09 00:37:50;;;;;;;;;;;;;;;7.89;74.39;98887.06;5051335;28;898;-55
2022/04/09 00:40:20;;;;;;;;;;;;;;;8.06;74.18;98877.84;5051334;28;794;-56
2022/04/09 00:42:47;;;;;;;;;;;;;;;8.01;74.42;98877.53;5051370;28;908;-56
2022/04/09 00:45:15;;;;;;;;;;;;;;;8.01;74.79;98872.81;5051242;28;961;-56
2022/04/09 00:47:41;;;;;;;;;;;;;;;8.04;74.35;98874.72;5051561;28;908;-56
2022/04/09 00:50:09;;;;;;;;;;;;;;;7.96;74.41;98868.53;5051276;28;1886;-56
2022/04/09 00:52:41;;;;;;;;;;;;;;;7.89;74.78;98868.56;5051235;28;814;-56
2022/04/09 00:55:09;;;;;;;;;;;;;;;7.95;75.09;98874.44;5051476;28;933;-56
2022/04/09 00:57:35;;;;;;;;;;;;;;;7.99;74.66;98872.44;5051492;28;853;-56
2022/04/09 01:00:09;;;;;;;;;;;;;;;7.94;75.00;98870.91;5051155;28;811;-56
2022/04/09 01:02:43;;;;;;;;;;;;;;;7.71;74.41;98860.50;5051302;28;854;-56
2022/04/09 01:05:11;;;;;;;;;;;;;;;7.45;76.22;98855.63;5051155;28;841;-56
2022/04/09 01:07:38;;;;;;;;;;;;;;;7.21;77.48;98855.38;5051150;28;802;-56
2022/04/09 01:10:08;;;;;;;;;;;;;;;7.03;78.54;98857.44;5050997;28;1943;-56
2022/04/09 01:12:36;;;;;;;;;;;;;;;6.92;77.81;98857.50;5051197;28;878;-56
2022/04/09 01:15:05;;;;;;;;;;;;;;;6.71;78.72;98867.41;5051008;28;827;-55
2022/04/09 01:17:32;;;;;;;;;;;;;;;6.61;79.61;98860.00;5051017;28;794;-56
2022/04/09 01:19:59;;;;;;;;;;;;;;;6.84;79.51;98847.75;5051072;28;878;-56
2022/04/09 01:22:25;;;;;;;;;;;;;;;7.00;79.74;98839.00;5051013;28;806;-56
2022/04/09 01:24:52;;;;;;;;;;;;;;;7.21;79.48;98838.09;5053056;28;955;-56
2022/04/09 01:27:18;;;;;;;;;;;;;;;7.32;78.84;98833.31;5054504;28;1280;-56
2022/04/09 01:29:45;;;;;;;;;;;;;;;7.22;78.12;98825.94;5054651;28;1977;-56
2022/04/09 01:32:12;;;;;;;;;;;;;;;6.99;78.41;98829.22;5054677;28;854;-56
2022/04/09 01:34:39;;;;;;;;;;;;;;;6.80;78.53;98839.50;5054502;28;921;-56
2022/04/09 01:37:06;;;;;;;;;;;;;;;6.68;79.66;98849.00;5054498;28;976;-55
2022/04/09 01:39:33;;;;;;;;;;;;;;;6.63;79.41;98849.41;5054329;28;933;-55
2022/04/09 01:42:00;;;;;;;;;;;;;;;6.67;79.98;98860.38;5054487;28;845;-56
2022/04/09 01:44:27;;;;;;;;;;;;;;;6.64;79.44;98856.47;5054524;28;854;-56
2022/04/09 01:46:54;;;;;;;;;;;;;;;6.49;80.31;98861.22;5054366;28;834;-56
2022/04/09 01:49:20;;;;;;;;;;;;;;;6.50;81.27;98865.53;5054376;28;1948;-56
2022/04/09 01:51:49;;;;;;;;;;;;;;;6.53;81.15;98861.22;5054173;28;901;-54
2022/04/09 01:54:16;;;;;;;;;;;;;;;6.47;80.95;98860.06;5054261;28;857;-55
2022/04/09 01:56:42;;;;;;;;;;;;;;;6.45;80.40;98854.19;5054120;28;810;-56
2022/04/09 01:59:09;;;;;;;;;;;;;;;6.35;81.35;98847.53;5054171;28;810;-56
2022/04/09 02:01:35;;;;;;;;;;;;;;;6.28;81.38;98855.81;5054047;28;975;-56
2022/04/09 02:04:02;;;;;;;;;;;;;;;6.19;81.62;98847.19;5054011;28;889;-56
2022/04/09 02:06:29;;;;;;;;;;;;;;;6.26;82.50;98837.00;5054012;28;814;-56
2022/04/09 02:08:55;;;;;;;;;;;;;;;6.52;81.54;98846.69;5053764;28;1858;-56
2022/04/09 02:11:23;;;;;;;;;;;;;;;6.63;81.43;98854.09;5053861;28;874;-55
2022/04/09 02:13:51;;;;;;;;;;;;;;;6.55;81.32;98847.88;5053851;28;807;-56
2022/04/09 02:16:17;;;;;;;;;;;;;;;6.51;81.99;98852.59;5053785;28;798;-55
2022/04/09 02:18:44;;;;;;;;;;;;;;;6.49;81.71;98846.72;5053669;28;838;-55
2022/04/09 02:21:10;;;;;;;;;;;;;;;6.36;81.33;98840.09;5053649;28;886;-55
2022/04/09 02:23:37;;;;;;;;;;;;;;;6.36;82.66;98845.56;5053901;28;853;-55
2022/04/09 02:26:04;;;;;;;;;;;;;;;6.32;81.72;98840.91;5053454;28;1230;-55
2022/04/09 02:28:32;;;;;;;;;;;;;;;6.21;81.72;98831.91;5053638;28;1914;-55
2022/04/09 02:30:59;;;;;;;;;;;;;;;6.17;83.45;98836.63;5053462;28;932;-55
2022/04/09 02:33:26;;;;;;;;;;;;;;;6.27;82.31;98835.81;5053754;28;854;-55
2022/04/09 02:35:53;;;;;;;;;;;;;;;6.24;82.21;98835.81;5052845;28;913;-56
2022/04/09 02:38:18;;;;;;;;;;;;;;;6.31;83.23;98825.59;5053234;28;798;-56
2022/04/09 02:40:45;;;;;;;;;;;;;;;6.38;82.98;98832.25;5053413;28;818;-55
2022/04/09 02:43:12;;;;;;;;;;;;;;;6.28;83.28;98837.38;5052076;28;1641;-56
2022/04/09 02:45:38;;;;;;;;;;;;;;;6.25;84.37;98831.88;5053264;28;900;-55
2022/04/09 02:48:05;;;;;;;;;;;;;;;6.33;83.40;98827.94;5053242;28;830;-55
2022/04/09 02:50:32;;;;;;;;;;;;;;;6.30;83.44;98824.03;5053126;28;1882;-55
2022/04/09 02:52:59;;;;;;;;;;;;;;;6.26;82.95;98827.97;5053149;28;881;-55
2022/04/09 02:55:26;;;;;;;;;;;;;;;6.30;83.77;98821.28;5053222;28;821;-54
2022/04/09 02:57:52;;;;;;;;;;;;;;;6.31;83.46;98822.84;5053242;28;901;-54
2022/04/09 03:00:19;;;;;;;;;;;;;;;6.23;83.06;98810.34;5053242;28;869;-55
2022/04/09 03:02:46;;;;;;;;;;;;;;;6.19;84.09;98817.00;5053044;28;869;-56
2022/04/09 03:05:13;;;;;;;;;;;;;;;6.21;83.89;98807.22;5052807;28;798;-55
2022/04/09 03:07:40;;;;;;;;;;;;;;;6.16;83.30;98807.63;5052996;28;945;-56
2022/04/09 03:10:07;;;;;;;;;;;;;;;6.10;83.80;98799.03;5052724;28;1862;-54
2022/04/09 03:12:34;;;;;;;;;;;;;;;6.09;83.72;98800.19;5052780;28;850;-55
2022/04/09 03:15:01;;;;;;;;;;;;;;;6.11;84.27;98800.56;5051414;28;913;-55
2022/04/09 03:17:28;;;;;;;;;;;;;;;6.12;84.29;98799.41;5052917;28;957;-55
2022/04/09 03:19:54;;;;;;;;;;;;;;;6.14;84.46;98796.25;5052536;28;917;-54
2022/04/09 03:22:22;;;;;;;;;;;;;;;6.27;84.24;98799.34;5052438;28;914;-56
2022/04/09 03:24:48;;;;;;;;;;;;;;;6.36;83.51;98796.97;5052829;28;1074;-55
2022/04/09 03:27:16;;;;;;;;;;;;;;;6.42;83.94;98792.66;5052227;28;1252;-56
2022/04/09 03:29:42;;;;;;;;;;;;;;;6.41;83.13;98785.56;5052371;28;1917;-54
2022/04/09 03:32:09;;;;;;;;;;;;;;;6.39;83.25;98787.16;5052269;28;941;-55
2022/04/09 03:34:36;;;;;;;;;;;;;;;6.36;83.05;98790.69;5052369;28;877;-56
2022/04/09 03:37:03;;;;;;;;;;;;;;;6.26;83.23;98798.56;5052191;28;823;-55
2022/04/09 03:39:30;;;;;;;;;;;;;;;6.08;83.09;98800.56;5052282;28;1133;-55
2022/04/09 03:41:57;;;;;;;;;;;;;;;6.15;84.27;98805.28;5052566;28;893;-55
2022/04/09 03:44:24;;;;;;;;;;;;;;;6.43;82.09;98801.66;5052066;28;955;-56
2022/04/09 03:46:56;;;;;;;;;;;;;;;6.66;81.00;98799.19;5052135;28;846;-56
2022/04/09 03:49:23;;;;;;;;;;;;;;;6.72;80.92;98794.03;5052010;28;1955;-56
2022/04/09 03:51:50;;;;;;;;;;;;;;;6.85;80.68;98795.16;5051959;28;886;-56
2022/04/09 03:54:17;;;;;;;;;;;;;;;6.98;79.93;98795.47;5051994;28;854;-56
2022/04/09 03:56:44;;;;;;;;;;;;;;;7.05;79.28;98792.66;5052012;28;873;-56
2022/04/09 03:59:10;;;;;;;;;;;;;;;7.08;79.31;98796.56;5051963;28;897;-56
2022/04/09 04:01:36;;;;;;;;;;;;;;;7.02;78.72;98789.94;5051866;28;850;-56
2022/04/09 04:04:03;;;;;;;;;;;;;;;6.94;78.75;98780.97;5051746;28;996;-56
2022/04/09 04:06:30;;;;;;;;;;;;;;;6.90;79.13;98781.00;5050561;28;838;-55
2022/04/09 04:08:56;;;;;;;;;;;;;;;6.85;79.69;98775.13;5051597;28;1941;-56
2022/04/09 04:11:24;;;;;;;;;;;;;;;6.91;79.23;98782.56;5050497;28;878;-56
2022/04/09 04:13:51;;;;;;;;;;;;;;;7.00;79.32;98784.06;5051660;28;886;-56
2022/04/09 04:16:17;;;;;;;;;;;;;;;7.16;78.35;98784.34;5051618;28;850;-55
2022/04/09 04:18:44;;;;;;;;;;;;;;;7.25;77.81;98790.16;5051592;28;838;-56
2022/04/09 04:21:11;;;;;;;;;;;;;;;7.33;76.73;98807.38;5050422;28;873;-56
2022/04/09 04:23:38;;;;;;;;;;;;;;;7.47;77.82;98812.78;5051591;28;933;-56
2022/04/09 04:26:05;;;;;;;;;;;;;;;7.62;76.36;98805.19;5051163;28;1429;-56
2022/04/09 04:28:32;;;;;;;;;;;;;;;7.73;75.53;98803.09;5051415;28;1976;-56
2022/04/09 04:30:58;;;;;;;;;;;;;;;7.84;75.36;98800.25;5051460;28;916;-56
2022/04/09 04:33:25;;;;;;;;;;;;;;;7.96;74.64;98804.47;5051538;28;849;-56
2022/04/09 04:35:52;;;;;;;;;;;;;;;8.16;74.69;98810.16;5051319;28;794;-56
2022/04/09 04:38:19;;;;;;;;;;;;;;;8.41;73.47;98809.09;5051347;28;915;-56
2022/04/09 04:40:46;;;;;;;;;;;;;;;8.58;73.13;98802.59;5051366;28;909;-56
2022/04/09 04:43:12;;;;;;;;;;;;;;;8.83;72.43;98798.72;5051349;28;882;-56
2022/04/09 04:45:39;;;;;;;;;;;;;;;9.28;70.74;98799.25;5051637;28;886;-56
2022/04/09 04:48:05;;;;;;;;;;;;;;;9.98;68.88;98797.66;5051237;28;914;-56
2022/04/09 04:50:32;;;;;;;;;;;;;;;10.73;65.65;98796.19;5051305;28;1886;-55
2022/04/09 04:52:59;;;;;;;;;;;;;;;11.27;63.52;98794.97;5051294;28;802;-56
2022/04/09 04:55:25;;;;;;;;;;;;;;;11.63;62.26;98799.63;5033349;28;814;-56
2022/04/09 04:57:52;;;;;;;;;;;;;;;11.71;61.57;98800.97;5051544;28;1028;-56
2022/04/09 05:00:20;;;;;;;;;;;;;;;11.86;60.71;98801.41;5053979;28;952;-56
2022/04/09 05:02:47;;;;;;;;;;;;;;;11.73;61.12;98803.31;5055071;28;839;-56
2022/04/09 05:05:14;;;;;;;;;;;;;;;11.19;62.37;98804.63;5055238;28;904;-56
2022/04/09 05:07:45;;;;;;;;;;;;;;;11.06;63.89;98795.47;5055031;28;802;-56
2022/04/09 05:10:15;;;;;;;;;;;;;;;11.34;63.03;98807.84;5055031;28;1894;-56
2022/04/09 05:12:43;;;;;;;;;;;;;;;11.63;62.59;98799.63;5054978;28;902;-56
2022/04/09 05:15:11;;;;;;;;;;;;;;;12.12;61.37;98798.78;5055001;28;853;-56
2022/04/09 05:17:38;;;;;;;;;;;;;;;12.56;59.27;98801.91;5054915;28;897;-56
2022/04/09 05:20:09;;;;;;;;;;;;;;;13.00;59.08;98799.41;5054896;28;814;-56
2022/04/09 05:22:39;;;;;;;;;;;;;;;13.78;56.85;98796.13;5054921;28;869;-56
2022/04/09 05:25:05;;;;;;;;;;;;;;;13.86;55.23;98797.44;5055270;28;906;-56
2022/04/09 05:27:32;;;;;;;;;;;;;;;13.96;56.23;98801.06;5055435;28;834;-56
2022/04/09 05:29:58;;;;;;;;;;;;;;;14.12;54.60;98813.22;5054863;28;1910;-56
2022/04/09 05:32:25;;;;;;;;;;;;;;;13.92;55.24;98813.53;5055067;28;786;-56
2022/04/09 05:34:52;;;;;;;;;;;;;;;13.71;55.59;98810.25;5054882;28;790;-57
2022/04/09 05:37:18;;;;;;;;;;;;;;;13.79;56.07;98819.91;5055488;28;873;-56
2022/04/09 05:39:47;;;;;;;;;;;;;;;14.05;55.19;98812.25;5054512;28;1014;-56
2022/04/09 05:42:14;;;;;;;;;;;;;;;14.62;54.11;98814.25;5055224;28;751;-56
2022/04/09 05:44:41;;;;;;;;;;;;;;;15.22;51.95;98811.13;5054865;28;830;-57
2022/04/09 05:47:08;;;;;;;;;;;;;;;15.60;52.49;98812.03;5054566;28;889;-56
2022/04/09 05:49:34;;;;;;;;;;;;;;;15.63;50.89;98806.31;5054660;28;1913;-57
2022/04/09 05:52:01;;;;;;;;;;;;;;;15.60;51.46;98804.44;5054389;28;894;-57
2022/04/09 05:54:29;;;;;;;;;;;;;;;16.23;50.21;98807.75;5054619;28;885;-57
2022/04/09 05:56:55;;;;;;;;;;;;;;;17.04;50.08;98803.75;5054506;28;901;-56
2022/04/09 05:59:25;;;;;;;;;;;;;;;17.73;47.06;98808.38;5054622;28;861;-56
2022/04/09 06:01:52;;;;;;;;;;;;;;;18.59;46.04;98802.44;5054262;28;933;-57
2022/04/09 06:04:20;;;;;;;;;;;;;;;19.19;43.18;98801.16;5054086;28;894;-56
2022/04/09 06:06:46;;;;;;;;;;;;;;;19.86;42.33;98806.19;5053978;28;913;-56
2022/04/09 06:09:13;;;;;;;;;;;;;;;20.38;43.28;98792.25;5052590;28;1894;-57
2022/04/09 06:11:41;;;;;;;;;;;;;;;19.64;42.61;98790.59;5052690;28;802;-57
2022/04/09 06:14:11;;;;;;;;;;;;;;;18.76;44.65;98781.09;5053770;28;936;-57
2022/04/09 06:16:38;;;;;;;;;;;;;;;17.99;45.04;98773.59;5053804;28;997;-57
2022/04/09 06:19:05;;;;;;;;;;;;;;;16.86;47.11;98773.91;5053689;28;921;-57
2022/04/09 06:21:33;;;;;;;;;;;;;;;15.93;49.08;98768.44;5053724;28;945;-57
2022/04/09 06:24:00;;;;;;;;;;;;;;;15.77;49.98;98779.91;5052355;28;1037;-57
2022/04/09 06:26:27;;;;;;;;;;;;;;;16.16;49.74;98780.22;5053378;28;1553;-57
2022/04/09 06:28:54;;;;;;;;;;;;;;;16.04;50.57;98787.47;5053702;28;1910;-57
2022/04/09 06:31:21;;;;;;;;;;;;;;;15.88;50.98;98785.78;5053717;28;872;-57
2022/04/09 06:33:48;;;;;;;;;;;;;;;16.08;50.87;98788.09;5053562;28;854;-57
2022/04/09 06:36:15;;;;;;;;;;;;;;;16.89;49.95;98782.09;5053347;28;810;-56
2022/04/09 06:38:42;;;;;;;;;;;;;;;16.96;48.62;98789.34;5053469;28;799;-57
2022/04/09 06:41:09;;;;;;;;;;;;;;;16.72;49.16;98783.69;5053392;28;885;-56
2022/04/09 06:43:36;;;;;;;;;;;;;;;17.19;47.60;98790.66;5053252;28;838;-57
2022/04/09 06:46:03;;;;;;;;;;;;;;;18.15;46.39;98798.31;5053499;28;858;-57
2022/04/09 06:48:30;;;;;;;;;;;;;;;18.79;43.69;98793.38;5053155;28;1914;-57
2022/04/09 06:50:57;;;;;;;;;;;;;;;19.46;42.55;98791.63;5053374;28;847;-57
2022/04/09 06:53:24;;;;;;;;;;;;;;;20.09;41.70;98801.63;5051899;28;858;-57
2022/04/09 06:55:50;;;;;;;;;;;;;;;20.10;41.97;98803.94;5053119;28;995;-57
2022/04/09 06:58:17;;;;;;;;;;;;;;;20.18;41.32;98798.66;5053125;28;786;-56
2022/04/09 07:00:44;;;;;;;;;;;;;;;20.46;41.01;98800.97;5052970;28;832;-57
2022/04/09 07:03:12;;;;;;;;;;;;;;;20.84;41.16;98791.41;5053019;28;807;-57
2022/04/09 07:05:40;;;;;;;;;;;;;;;20.68;39.52;98792.06;5052707;28;894;-58
2022/04/09 07:08:08;;;;;;;;;;;;;;;20.64;40.09;98797.88;5052894;28;897;-57
2022/04/09 07:10:37;;;;;;;;;;;;;;;21.04;40.34;98792.59;5051422;28;1881;-56
2022/04/09 07:13:04;;;;;;;;;;;;;;;21.29;39.98;98786.13;5052693;28;902;-56
2022/04/09 07:15:31;;;;;;;;;;;;;;;21.26;39.70;98781.53;5051386;28;1219;-57
2022/04/09 07:17:58;;;;;;;;;;;;;;;21.32;38.35;98793.56;5051430;28;925;-57
2022/04/09 07:20:25;;;;;;;;;;;;;;;21.21;39.18;98787.88;5052599;28;882;-57
2022/04/09 07:22:52;;;;;;;;;;;;;;;21.40;39.65;98791.84;5050786;28;1513;-57
2022/04/09 07:25:19;;;;;;;;;;;;;;;21.62;39.22;98790.47;5051116;28;1215;-57
2022/04/09 07:27:47;;;;;;;;;;;;;;;21.54;37.97;98790.16;5052465;28;857;-57
2022/04/09 07:30:15;;;;;;;;;;;;;;;21.45;39.07;98798.78;5051117;28;1905;-57
2022/04/09 07:32:42;;;;;;;;;;;;;;;22.17;39.00;98794.78;5052391;28;814;-57
2022/04/09 07:35:09;;;;;;;;;;;;;;;22.96;37.46;98792.09;5052235;28;881;-57
2022/04/09 07:37:43;;;;;;;;;;;;;;;22.73;36.52;98794.13;5052264;28;861;-57
2022/04/09 07:40:09;;;;;;;;;;;;;;;22.16;37.82;98798.84;5051323;28;861;-58
2022/04/09 07:42:35;;;;;;;;;;;;;;;21.74;37.87;98788.44;5052221;28;897;-57
2022/04/09 07:45:02;;;;;;;;;;;;;;;21.03;39.68;98793.88;5050775;28;2886;-57
2022/04/09 07:47:29;;;;;;;;;;;;;;;20.53;41.08;98792.91;5052191;28;814;-57
2022/04/09 07:49:56;;;;;;;;;;;;;;;20.96;40.68;98795.88;5051871;28;1945;-57
2022/04/09 07:52:23;;;;;;;;;;;;;;;21.31;39.43;98783.59;5052048;28;850;-57
2022/04/09 07:54:50;;;;;;;;;;;;;;;21.70;40.58;98780.28;5051875;28;858;-57
2022/04/09 07:57:16;;;;;;;;;;;;;;;21.70;39.73;98763.41;5052012;28;838;-57
2022/04/09 07:59:43;;;;;;;;;;;;;;;21.47;40.46;98764.56;5051858;28;822;-57
2022/04/09 08:02:11;;;;;;;;;;;;;;;21.54;39.92;98769.69;5051786;28;1089;-58
2022/04/09 08:04:38;;;;;;;;;;;;;;;21.33;40.50;98769.81;5051718;28;814;-57
2022/04/09 08:07:05;;;;;;;;;;;;;;;20.99;41.43;98768.81;5051717;28;921;-57
2022/04/09 08:09:32;;;;;;;;;;;;;;;20.78;40.90;98766.13;5051689;28;1993;-57
2022/04/09 08:11:59;;;;;;;;;;;;;;;20.39;41.19;98754.50;5051650;28;894;-57
2022/04/09 08:14:26;;;;;;;;;;;;;;;20.86;41.95;98762.84;5051719;28;901;-57
2022/04/09 08:16:53;;;;;;;;;;;;;;;21.50;40.63;98755.13;5051533;28;913;-57
2022/04/09 08:19:21;;;;;;;;;;;;;;;21.37;40.12;98753.47;5051588;28;866;-57
2022/04/09 08:21:47;;;;;;;;;;;;;;;21.48;41.51;98752.03;5051485;28;933;-57
2022/04/09 08:24:13;;;;;;;;;;;;;;;21.76;40.48;98747.31;5050363;28;951;-58
2022/04/09 08:26:40;;;;;;;;;;;;;;;21.11;41.19;98750.78;5051438;28;1173;-57
2022/04/09 08:29:07;;;;;;;;;;;;;;;20.76;42.63;98751.81;5051449;28;1918;-57
2022/04/09 08:31:34;;;;;;;;;;;;;;;21.18;41.89;98750.28;5051433;28;857;-57
2022/04/09 08:34:01;;;;;;;;;;;;;;;21.93;41.26;98746.59;5050517;28;933;-57
2022/04/09 08:36:28;;;;;;;;;;;;;;;22.32;40.29;98755.19;5051462;28;878;-57
2022/04/09 08:38:55;;;;;;;;;;;;;;;22.12;40.75;98756.13;5051409;28;802;-57
2022/04/09 08:41:22;;;;;;;;;;;;;;;22.40;39.46;98747.00;5051459;28;870;-57
2022/04/09 08:43:49;;;;;;;;;;;;;;;22.31;39.96;98750.06;5051591;28;873;-57
2022/04/09 08:46:16;;;;;;;;;;;;;;;21.66;42.38;98748.03;5051322;28;937;-56
2022/04/09 08:48:46;;;;;;;;;;;;;;;22.09;42.38;98757.13;5051593;28;1960;-57
2022/04/09 08:51:13;;;;;;;;;;;;;;;21.83;40.63;98746.06;5051705;28;786;-57
2022/04/09 08:53:40;;;;;;;;;;;;;;;21.60;40.94;98736.78;5051294;28;888;-57
2022/04/09 08:56:10;;;;;;;;;;;;;;;21.35;42.00;98739.16;5051790;28;798;-57
2022/04/09 08:58:38;;;;;;;;;;;;;;;21.34;40.04;98746.06;5051273;28;817;-57
2022/04/09 09:01:04;;;;;;;;;;;;;;;21.26;40.95;98752.66;5051278;28;830;-58
2022/04/09 09:03:30;;;;;;;;;;;;;;;20.89;40.75;98751.41;5051065;28;861;-57
2022/04/09 09:05:57;;;;;;;;;;;;;;;20.52;40.89;98745.69;5051449;28;830;-58
2022/04/09 09:08:42;;;;;;;;;;;;;;;20.40;42.74;98742.78;5051525;28;905;-57
2022/04/09 09:11:08;;;;;;;;;;;;;;;20.55;41.88;98736.28;5051105;28;878;-58
2022/04/09 09:13:50;;;;;;;;;;;;;;;20.74;41.87;98731.09;5051067;28;957;-57
2022/04/09 09:16:27;;;;;;;;;;;;;;;21.06;43.15;98728.25;5049708;28;924;-57
2022/04/09 09:18:55;;;;;;;;;;;;;;;21.51;42.88;98725.75;5051146;28;1189;-57
2022/04/09 09:21:26;;;;;;;;;;;;;;;21.45;41.72;98717.28;5050924;28;893;-57
2022/04/09 09:24:11;;;;;;;;;;;;;;;21.23;41.47;98715.09;5050912;28;957;-58
2022/04/09 09:26:39;;;;;;;;;;;;;;;21.31;42.38;98699.28;5050734;28;1288;-57
2022/04/09 09:29:06;;;;;;;;;;;;;;;21.33;41.43;98710.03;5050901;28;1985;-57
2022/04/09 09:31:43;;;;;;;;;;;;;;;21.28;44.56;98708.72;5050891;28;810;-57
2022/04/09 09:34:10;;;;;;;;;;;;;;;21.44;42.99;98706.53;5051164;28;877;-58
2022/04/09 09:36:40;;;;;;;;;;;;;;;21.41;44.32;98703.44;5050832;28;821;-57
2022/04/09 09:39:07;;;;;;;;;;;;;;;21.08;44.50;98692.78;5050786;28;1243;-57
2022/04/09 09:41:45;;;;;;;;;;;;;;;20.76;45.59;98701.25;5051048;28;861;-57
2022/04/09 09:44:12;;;;;;;;;;;;;;;21.04;43.43;98692.25;5051015;28;878;-57
2022/04/09 09:46:39;;;;;;;;;;;;;;;21.23;42.27;98687.00;5053833;28;802;-57
2022/04/09 09:49:06;;;;;;;;;;;;;;;21.38;43.49;98679.16;5054262;28;1956;-57
2022/04/09 09:51:33;;;;;;;;;;;;;;;21.44;43.03;98679.19;5054304;28;872;-57
2022/04/09 09:54:11;;;;;;;;;;;;;;;21.52;44.48;98673.88;5054458;28;889;-57
2022/04/09 09:56:39;;;;;;;;;;;;;;;21.93;41.43;98660.16;5054149;28;910;-57
2022/04/09 10:27:52;;;;;;;;;;;;;;;23.60;40.28;98620.25;5034180;28;759;-58
2022/04/09 10:30:25;;;;;;;;;;;;;;;23.70;37.56;98623.50;5033538;28;1922;-56
2022/04/09 10:32:53;;;;;;;;;;;;;;;23.87;37.71;98619.84;5033923;28;916;-56
2022/04/09 10:35:39;;;;;;;;;;;;;;;23.90;38.51;98624.44;5033591;28;882;-58
2022/04/09 10:38:15;;;;;;;;;;;;;;;23.81;37.61;98619.88;5033631;28;830;-58
2022/04/09 10:40:45;;;;;;;;;;;;;;;23.86;39.55;98607.81;5033449;28;858;-57
2022/04/09 10:43:27;;;;;;;;;;;;;;;24.07;38.38;98604.56;5033491;28;889;-58
2022/04/09 10:46:04;;;;;;;;;;;;;;;24.43;37.57;98608.91;5033320;28;925;-58
2022/04/09 10:48:35;;;;;;;;;;;;;;;24.29;36.39;98604.41;5033236;28;1080;-57
2022/04/09 10:51:05;;;;;;;;;;;;;;;24.24;35.56;98608.03;5033341;28;858;-58
2022/04/09 10:53:32;;;;;;;;;;;;;;;24.09;34.81;98599.94;5033574;28;815;-57
2022/04/09 10:56:17;;;;;;;;;;;;;;;24.47;37.63;98588.81;5015471;28;953;-57
2022/04/09 10:59:01;;;;;;;;;;;;;;;24.32;34.58;98586.38;5032755;28;863;-58
2022/04/09 11:01:46;;;;;;;;;;;;;;;23.83;35.84;98591.91;5033080;28;841;-57
2022/04/09 11:04:32;;;;;;;;;;;;;;;24.08;36.62;98589.19;5032970;28;1237;-57
2022/04/09 11:07:03;;;;;;;;;;;;;;;24.69;37.41;98585.06;5032906;28;926;-57
2022/04/09 11:09:53;;;;;;;;;;;;;;;24.86;35.18;98574.31;5032780;28;1890;-57
2022/04/09 11:12:20;;;;;;;;;;;;;;;24.75;36.54;98576.50;5032812;28;991;-57
2022/04/09 11:14:49;;;;;;;;;;;;;;;24.87;34.81;98569.44;5032760;28;855;-58
2022/04/09 11:17:16;;;;;;;;;;;;;;;24.75;37.08;98574.47;5032730;28;933;-57
2022/04/09 11:19:43;;;;;;;;;;;;;;;25.13;35.25;98571.69;5032728;28;834;-57
2022/04/09 11:22:09;;;;;;;;;;;;;;;25.04;34.71;98566.41;5032636;28;1021;-57
2022/04/09 11:24:37;;;;;;;;;;;;;;;24.89;35.21;98566.09;5032710;28;912;-57
2022/04/09 11:27:04;;;;;;;;;;;;;;;24.94;34.29;98542.63;5042577;28;1445;-57
2022/04/09 11:29:35;;;;;;;;;;;;;;;24.94;34.09;98556.78;5052359;28;1918;-57
2022/04/09 11:32:02;;;;;;;;;;;;;;;25.06;35.61;98556.09;5052636;28;922;-57
2022/04/09 11:34:45;;;;;;;;;;;;;;;25.04;35.58;98557.94;5052566;28;881;-58
2022/04/09 11:37:13;;;;;;;;;;;;;;;24.99;34.47;98539.00;5052285;28;909;-58
2022/04/09 11:39:43;;;;;;;;;;;;;;;24.82;33.62;98537.13;5052308;28;794;-58
2022/04/09 11:42:09;;;;;;;;;;;;;;;24.98;36.21;98526.91;5052415;28;869;-57
2022/04/09 11:44:38;;;;;;;;;;;;;;;24.91;35.12;98533.16;5052677;28;798;-58
2022/04/09 11:47:13;;;;;;;;;;;;;;;25.11;36.95;98525.47;5052193;28;997;-57
2022/04/09 11:49:44;;;;;;;;;;;;;;;25.45;33.58;98520.13;5051959;28;1889;-58
2022/04/09 11:52:10;;;;;;;;;;;;;;;25.40;32.73;98521.75;5052309;28;890;-58
2022/04/09 11:54:38;;;;;;;;;;;;;;;25.37;31.32;98524.88;5050675;28;1498;-57
2022/04/09 11:57:09;;;;;;;;;;;;;;;25.48;32.01;98516.25;5051971;28;904;-57
2022/04/09 11:59:36;;;;;;;;;;;;;;;25.65;32.84;98516.00;5051873;28;914;-58
2022/04/09 12:02:03;;;;;;;;;;;;;;;25.85;33.71;98498.41;5051993;28;826;-58
2022/04/09 12:04:34;;;;;;;;;;;;;;;26.04;32.95;98508.94;5052043;28;853;-58
2022/04/09 12:07:01;;;;;;;;;;;;;;;26.24;32.11;98502.69;5052442;28;755;-58
2022/04/09 12:09:28;;;;;;;;;;;;;;;26.29;32.57;98492.53;5052014;28;1893;-58
2022/04/09 12:11:54;;;;;;;;;;;;;;;26.36;32.62;98491.13;5051953;28;968;-58
2022/04/09 12:14:21;;;;;;;;;;;;;;;26.44;30.79;98489.19;5050953;28;783;-57
2022/04/09 12:16:48;;;;;;;;;;;;;;;26.31;32.32;98487.09;5052551;28;747;-58
2022/04/09 12:19:15;;;;;;;;;;;;;;;25.99;31.37;98478.66;5051681;28;865;-57
2022/04/09 12:21:42;;;;;;;;;;;;;;;25.75;33.62;98466.16;5052188;28;802;-58
2022/04/09 12:24:12;;;;;;;;;;;;;;;25.93;34.34;98467.44;5051760;28;1059;-57
2022/04/09 12:26:43;;;;;;;;;;;;;;;26.48;31.98;98462.06;5051325;28;1292;-58
2022/04/09 12:29:22;;;;;;;;;;;;;;;26.74;31.81;98456.94;5051622;28;1917;-58
2022/04/09 12:31:51;;;;;;;;;;;;;;;26.84;32.88;98443.81;5051482;28;874;-58
2022/04/09 12:34:18;;;;;;;;;;;;;;;27.21;32.79;98453.31;5052014;28;795;-58
2022/04/09 12:37:05;;;;;;;;;;;;;;;27.68;31.90;98441.13;5051527;28;802;-57
2022/04/09 12:39:40;;;;;;;;;;;;;;;27.57;31.37;98439.34;5051377;28;889;-57
2022/04/09 12:42:07;;;;;;;;;;;;;;;26.99;30.77;98435.50;5050153;28;861;-58
2022/04/09 12:44:34;;;;;;;;;;;;;;;26.84;32.17;98436.09;5050121;28;1195;-58
2022/04/09 12:47:01;;;;;;;;;;;;;;;26.71;32.27;98424.00;5051358;28;826;-58
2022/04/09 12:49:34;;;;;;;;;;;;;;;26.41;31.88;98427.94;5051220;28;1959;-58
2022/04/09 12:52:02;;;;;;;;;;;;;;;26.44;32.95;98432.53;5049894;28;1278;-58
2022/04/09 12:54:28;;;;;;;;;;;;;;;26.89;33.08;98420.28;5050200;28;849;-58
2022/04/09 12:56:56;;;;;;;;;;;;;;;27.00;31.48;98417.19;5051187;28;1575;-58
2022/04/09 12:59:23;;;;;;;;;;;;;;;26.90;33.52;98421.78;5051287;28;856;-58
2022/04/09 13:01:50;;;;;;;;;;;;;;;26.78;33.77;98414.81;5051281;28;888;-57
2022/04/09 13:04:17;;;;;;;;;;;;;;;26.37;33.74;98414.13;5051105;28;909;-57
2022/04/09 13:06:44;;;;;;;;;;;;;;;26.12;34.97;98424.91;5049907;28;793;-57
2022/04/09 13:09:10;;;;;;;;;;;;;;;26.20;35.04;98420.13;5051111;28;1981;-57
2022/04/09 13:11:37;;;;;;;;;;;;;;;26.58;35.79;98407.78;5051073;28;834;-58
2022/04/09 13:14:04;;;;;;;;;;;;;;;26.86;34.30;98412.84;5051155;28;845;-58
2022/04/09 13:16:30;;;;;;;;;;;;;;;26.88;33.98;98393.22;5049820;28;1461;-58
2022/04/09 13:18:57;;;;;;;;;;;;;;;26.82;34.01;98409.59;5051417;28;872;-58
2022/04/09 13:21:25;;;;;;;;;;;;;;;27.10;33.24;98408.97;5053677;28;934;-57
2022/04/09 13:23:52;;;;;;;;;;;;;;;27.63;32.58;98397.41;5053547;28;1519;-56
2022/04/09 13:26:19;;;;;;;;;;;;;;;28.16;31.80;98396.25;5054660;28;1269;-57
2022/04/09 13:28:46;;;;;;;;;;;;;;;28.61;31.30;98383.63;5054945;28;1975;-58
2022/04/09 13:31:12;;;;;;;;;;;;;;;28.70;31.38;98390.88;5054714;28;865;-58
2022/04/09 13:33:39;;;;;;;;;;;;;;;28.61;31.78;98391.41;5054726;28;873;-58
2022/04/09 13:36:06;;;;;;;;;;;;;;;28.19;31.94;98389.47;5054653;28;826;-58
2022/04/09 13:38:32;;;;;;;;;;;;;;;27.35;32.73;98394.50;5054632;28;846;-58
2022/04/09 13:40:59;;;;;;;;;;;;;;;26.65;34.14;98387.28;5054700;28;981;-58
2022/04/09 13:43:26;;;;;;;;;;;;;;;26.55;33.62;98383.38;5054821;28;806;-58